Time;durP1;ratioP1;P1;durP2;ratioP2;P2;SDS_P1;SDS_P2;PMS_P1;PMS_P2;Temp;Humidity;BMP_temperature;BMP_pressure;BME280_temperature;BME280_humidity;BME280_pressure;Samples;Min_cycle;Max_cycle;Signal;HPM_P1;HPM_P2
2021/03/04 00:02:17;;;;;;;43.83;31.40;;;;;;;9.68;58.49;98596.72;8375792;28;20211;-85
2021/03/04 00:06:19;;;;;;;39.83;31.17;;;;;;;9.63;58.78;98586.50;8374962;28;20334;-83
2021/03/04 00:10:23;;;;;;;37.83;30.77;;;;;;;9.66;58.30;98586.44;8373908;28;20208;-83
2021/03/04 00:14:25;;;;;;;42.03;30.43;;;;;;;9.54;58.29;98572.13;8377014;28;20250;-83
2021/03/04 00:18:27;;;;;;;40.23;30.73;;;;;;;9.50;59.01;98569.66;8378714;28;20207;-83
2021/03/04 00:22:30;;;;;;;37.37;30.37;;;;;;;9.32;59.19;98558.16;8381513;28;20248;-83
2021/03/04 00:26:34;;;;;;;46.47;30.93;;;;;;;9.22;59.90;98560.19;8377445;28;20195;-83
2021/03/04 00:30:36;;;;;;;44.27;30.63;;;;;;;9.14;60.16;98551.81;8380344;28;20199;-83
2021/03/04 00:34:41;;;;;;;40.63;31.07;;;;;;;9.33;59.59;98549.53;8381669;28;20273;-83
2021/03/04 00:38:43;;;;;;;39.27;29.17;;;;;;;9.44;58.65;98528.50;8380011;28;20223;-83
2021/03/04 00:42:46;;;;;;;40.77;28.80;;;;;;;9.48;58.53;98543.03;8370351;28;20305;-83
2021/03/04 00:46:48;;;;;;;40.43;28.33;;;;;;;9.33;59.55;98539.19;8370977;28;20200;-82
2021/03/04 00:50:50;;;;;;;41.43;28.53;;;;;;;9.43;59.03;98538.00;8372729;28;20245;-82
2021/03/04 00:54:53;;;;;;;35.20;28.57;;;;;;;9.53;58.62;98538.56;8370918;28;20310;-84
2021/03/04 00:58:56;;;;;;;33.73;27.73;;;;;;;9.54;58.59;98529.94;8369153;28;20208;-85
2021/03/04 01:02:58;;;;;;;38.37;27.20;;;;;;;9.41;59.08;98523.44;8369642;28;20208;-86
2021/03/04 01:07:00;;;;;;;39.70;27.73;;;;;;;9.64;58.75;98530.47;8387635;28;20243;-86
2021/03/04 01:11:02;;;;;;;38.57;28.40;;;;;;;9.70;58.32;98530.28;8371991;28;20249;-85
2021/03/04 01:15:12;;;;;;;39.13;27.70;;;;;;;9.60;58.24;98514.22;8371488;28;20215;-86
2021/03/04 01:19:14;;;;;;;39.43;28.77;;;;;;;9.36;59.09;98501.13;8371564;28;20211;-85
2021/03/04 01:23:16;;;;;;;33.07;27.37;;;;;;;9.34;59.24;98487.41;8369807;28;20250;-85
2021/03/04 01:27:19;;;;;;;37.37;27.70;;;;;;;9.10;60.10;98486.44;8372557;28;20196;-86
2021/03/04 01:31:22;;;;;;;35.57;27.53;;;;;;;9.18;59.65;98486.22;8371878;28;20207;-86
2021/03/04 01:35:25;;;;;;;32.53;26.53;;;;;;;9.46;58.65;98488.81;8369545;28;20228;-85
2021/03/04 01:39:29;;;;;;;35.83;26.23;;;;;;;9.47;58.43;98477.56;8371769;28;20290;-86
2021/03/04 01:43:32;;;;;;;39.47;26.97;;;;;;;9.43;58.64;98475.13;8369903;28;20202;-86
2021/03/04 01:47:35;;;;;;;35.93;26.17;;;;;;;9.67;58.29;98476.06;8367713;28;20227;-86
2021/03/04 01:51:38;;;;;;;36.33;26.63;;;;;;;9.68;58.30;98482.94;8368983;28;20207;-86
2021/03/04 01:55:41;;;;;;;38.67;26.70;;;;;;;9.69;58.11;98476.84;8368609;28;20203;-86
2021/03/04 01:59:43;;;;;;;32.63;24.50;;;;;;;9.72;57.79;98471.59;8368447;28;20204;-84
2021/03/04 02:03:46;;;;;;;34.30;26.77;;;;;;;9.63;57.94;98466.72;8369635;28;20527;-82
2021/03/04 02:08:03;;;;;;;36.13;27.03;;;;;;;9.56;57.81;98456.56;8370268;28;20247;-83
2021/03/04 02:12:08;;;;;;;35.10;26.90;;;;;;;9.64;58.07;98461.50;8370547;28;20230;-82
2021/03/04 02:16:14;;;;;;;38.57;26.87;;;;;;;9.70;58.05;98445.78;8368458;28;20204;-82
2021/03/04 02:20:29;;;;;;;33.90;26.50;;;;;;;9.77;57.61;98454.19;8370019;28;20643;-83
2021/03/04 02:24:43;;;;;;;35.57;25.63;;;;;;;9.72;57.83;98438.81;8371260;28;20196;-83
2021/03/04 02:28:47;;;;;;;35.30;26.80;;;;;;;9.53;58.26;98443.75;8372344;28;20561;-83
2021/03/04 02:32:51;;;;;;;34.33;25.87;;;;;;;9.67;57.81;98434.69;8370646;28;20671;-82
2021/03/04 02:36:54;;;;;;;35.07;27.63;;;;;;;9.65;57.97;98434.72;8371379;28;20203;-82
2021/03/04 02:40:58;;;;;;;36.13;27.63;;;;;;;9.65;58.07;98432.13;8370712;28;20556;-83
2021/03/04 02:45:01;;;;;;;37.40;27.27;;;;;;;9.65;58.07;98431.31;8370351;28;20215;-83
2021/03/04 02:49:05;;;;;;;35.33;26.40;;;;;;;9.70;57.97;98432.84;8370522;28;20254;-83
2021/03/04 02:53:07;;;;;;;35.27;26.10;;;;;;;9.64;58.08;98424.47;8370770;28;20224;-83
2021/03/04 02:57:11;;;;;;;32.70;25.53;;;;;;;9.67;58.04;98434.69;8369410;28;20648;-83
2021/03/04 03:01:15;;;;;;;39.57;27.67;;;;;;;9.49;57.97;98424.06;8371237;28;20208;-83
2021/03/04 03:05:22;;;;;;;33.27;24.33;;;;;;;9.57;57.72;98411.72;8367337;28;20311;-83
2021/03/04 03:09:28;;;;;;;33.33;26.37;;;;;;;9.56;57.80;98419.53;8368900;28;20192;-82
2021/03/04 03:13:30;;;;;;;37.43;26.07;;;;;;;9.56;57.76;98412.63;8369203;28;20259;-83
2021/03/04 03:17:34;;;;;;;30.07;25.57;;;;;;;9.45;58.12;98417.28;8366400;28;20218;-83
2021/03/04 03:21:36;;;;;;;34.40;24.80;;;;;;;9.24;58.49;98398.16;8371690;28;20208;-83
2021/03/04 03:25:39;;;;;;;36.43;25.60;;;;;;;9.41;58.04;98395.03;8371894;28;20192;-83
2021/03/04 03:29:42;;;;;;;29.70;25.00;;;;;;;9.45;58.01;98400.94;8392988;28;20200;-83
2021/03/04 03:33:45;;;;;;;33.97;26.47;;;;;;;9.36;58.22;98386.56;8381873;28;20228;-83
2021/03/04 03:37:47;;;;;;;34.17;25.37;;;;;;;9.02;59.61;98386.81;8382102;28;20215;-84
2021/03/04 03:41:49;;;;;;;34.13;25.63;;;;;;;8.96;59.50;98388.69;8381113;28;20587;-82
2021/03/04 03:45:52;;;;;;;34.83;26.67;;;;;;;8.59;60.80;98386.38;8374147;28;20211;-82
2021/03/04 03:49:57;;;;;;;29.77;24.67;;;;;;;8.85;59.97;98390.75;8374335;28;20210;-84
2021/03/04 03:54:00;;;;;;;33.37;25.33;;;;;;;8.51;60.99;98385.75;8371973;28;20227;-84
2021/03/04 03:58:03;;;;;;;31.20;25.37;;;;;;;8.76;59.85;98381.56;8372599;28;20204;-84
2021/03/04 04:02:05;;;;;;;28.73;25.03;;;;;;;8.79;59.92;98381.44;8371068;28;20238;-85
2021/03/04 04:06:08;;;;;;;31.73;25.80;;;;;;;8.51;60.45;98362.50;8372640;28;20231;-83
2021/03/04 04:10:12;;;;;;;31.63;25.53;;;;;;;8.58;60.47;98361.44;8372178;28;20204;-83
2021/03/04 04:14:13;;;;;;;34.07;25.70;;;;;;;8.57;60.38;98360.59;8371645;28;20220;-84
2021/03/04 04:18:18;;;;;;;38.43;25.70;;;;;;;8.54;60.52;98358.09;8366511;28;20224;-84
2021/03/04 04:22:24;;;;;;;32.63;24.70;;;;;;;8.41;60.83;98357.66;8372278;28;20199;-84
2021/03/04 04:26:26;;;;;;;34.07;25.90;;;;;;;8.27;61.48;98358.91;8372297;28;20223;-85
2021/03/04 04:30:28;;;;;;;32.17;24.87;;;;;;;8.36;61.15;98356.06;8371001;28;20253;-84
2021/03/04 04:34:30;;;;;;;32.07;25.67;;;;;;;8.66;59.81;98350.88;8372025;28;20679;-84
2021/03/04 04:38:34;;;;;;;33.10;24.77;;;;;;;8.91;59.17;98375.09;8371419;28;20207;-84
2021/03/04 04:42:37;;;;;;;38.03;25.67;;;;;;;8.85;59.14;98352.00;8372097;28;20214;-85
2021/03/04 04:46:38;;;;;;;33.00;25.10;;;;;;;8.63;59.73;98346.66;8372723;28;20195;-85
2021/03/04 04:50:40;;;;;;;40.77;26.17;;;;;;;8.50;60.38;98347.94;8371828;28;20257;-85
2021/03/04 04:54:44;;;;;;;30.73;24.37;;;;;;;8.85;59.15;98346.00;8370182;28;20326;-85
2021/03/04 04:58:46;;;;;;;32.83;24.93;;;;;;;8.84;59.04;98341.75;8366587;28;20208;-85
2021/03/04 05:02:50;;;;;;;33.03;26.00;;;;;;;8.82;58.65;98335.78;8358625;28;20270;-84
2021/03/04 05:06:54;;;;;;;39.90;25.30;;;;;;;8.96;58.60;98343.94;8371373;28;20239;-84
2021/03/04 05:10:57;;;;;;;32.13;25.10;;;;;;;9.02;58.21;98340.31;8371743;28;20576;-84
2021/03/04 05:14:59;;;;;;;33.10;24.73;;;;;;;8.92;58.32;98334.59;8369860;28;20231;-84
2021/03/04 05:19:01;;;;;;;34.43;24.73;;;;;;;8.95;58.41;98324.19;8372396;28;20565;-84
2021/03/04 05:23:07;;;;;;;31.17;26.10;;;;;;;8.83;58.66;98322.81;8362520;28;20234;-84
2021/03/04 05:27:10;;;;;;;30.63;24.27;;;;;;;9.01;58.23;98311.06;8352699;28;20204;-84
2021/03/04 05:31:12;;;;;;;30.10;24.57;;;;;;;9.01;58.03;98305.88;8371068;28;20214;-84
2021/03/04 05:35:15;;;;;;;29.93;25.30;;;;;;;8.99;58.14;98299.94;8370418;28;20228;-85
2021/03/04 05:39:16;;;;;;;29.80;24.23;;;;;;;9.07;58.15;98300.50;8370657;28;20207;-84
2021/03/04 05:43:20;;;;;;;34.90;26.77;;;;;;;8.97;58.00;98299.13;8371683;28;20204;-85
2021/03/04 05:47:22;;;;;;;33.20;25.40;;;;;;;8.89;58.34;98293.34;8370619;28;20211;-85
2021/03/04 05:51:26;;;;;;;32.17;25.43;;;;;;;8.71;58.93;98292.22;8400376;28;20208;-86
2021/03/04 05:55:28;;;;;;;32.87;25.70;;;;;;;8.83;58.36;98285.81;8374401;28;20235;-85
2021/03/04 05:59:31;;;;;;;31.57;24.53;;;;;;;9.00;58.42;98288.69;8374623;28;20204;-85
2021/03/04 06:03:36;;;;;;;34.20;25.07;;;;;;;9.00;57.97;98296.44;8375109;28;20200;-85
2021/03/04 06:07:38;;;;;;;35.47;26.30;;;;;;;9.02;57.92;98280.88;8376439;28;20584;-85
2021/03/04 06:11:41;;;;;;;34.60;26.97;;;;;;;8.99;57.76;98280.09;8374870;28;20572;-83
2021/03/04 06:15:44;;;;;;;35.70;26.30;;;;;;;8.88;57.72;98277.03;8374783;28;20216;-83
2021/03/04 06:19:52;;;;;;;32.60;27.00;;;;;;;8.81;58.36;98275.53;8375007;28;20286;-83
2021/03/04 06:23:56;;;;;;;36.57;26.40;;;;;;;9.01;57.98;98280.06;8375875;28;20204;-83
2021/03/04 06:27:58;;;;;;;33.53;25.90;;;;;;;8.99;57.66;98269.75;8376491;28;20226;-83
2021/03/04 06:32:03;;;;;;;34.10;25.63;;;;;;;9.01;57.29;98274.88;8360121;28;20243;-83
2021/03/04 06:36:13;;;;;;;32.83;25.47;;;;;;;8.74;58.26;98277.47;8341512;28;20232;-85
2021/03/04 06:40:22;;;;;;;35.40;26.83;;;;;;;9.00;57.88;98260.25;8345530;28;20224;-84
2021/03/04 06:44:24;;;;;;;33.57;25.73;;;;;;;8.86;57.81;98262.47;8350617;28;20219;-84
2021/03/04 06:48:27;;;;;;;32.43;25.57;;;;;;;8.56;58.31;98250.47;8372548;28;20298;-84
2021/03/04 06:52:31;;;;;;;30.80;23.83;;;;;;;8.99;57.17;98256.00;8370718;28;20231;-84
2021/03/04 06:56:33;;;;;;;26.63;12.77;;;;;;;10.47;73.97;98263.63;8377398;28;20203;-82
2021/03/04 07:00:34;;;;;;;26.43;20.23;;;;;;;11.74;56.39;98255.72;8378316;28;20196;-82
2021/03/04 07:04:38;;;;;;;26.57;19.53;;;;;;;12.32;52.17;98257.47;8378576;28;20627;-84
2021/03/04 07:08:40;;;;;;;30.77;22.33;;;;;;;12.21;50.47;98248.50;8377579;28;20727;-83
2021/03/04 07:12:42;;;;;;;27.83;21.50;;;;;;;12.51;49.47;98262.63;8375304;28;20660;-80
2021/03/04 07:16:46;;;;;;;31.87;22.57;;;;;;;12.96;47.21;98259.63;8371440;28;20652;-82
2021/03/04 07:20:50;;;;;;;32.37;24.37;;;;;;;12.07;49.10;98259.50;8358502;28;20263;-81
2021/03/04 07:24:51;;;;;;;30.07;24.17;;;;;;;11.79;49.13;98247.75;8364366;28;20613;-81
2021/03/04 07:28:56;;;;;;;31.33;24.20;;;;;;;11.68;49.11;98242.19;8366844;28;20234;-83
2021/03/04 07:32:57;;;;;;;29.30;22.77;;;;;;;11.63;49.58;98262.28;8372686;28;20224;-81
2021/03/04 07:37:01;;;;;;;30.13;23.10;;;;;;;11.37;50.28;98260.84;8371940;28;20303;-82
2021/03/04 07:41:06;;;;;;;30.90;23.53;;;;;;;11.40;50.03;98253.75;8371866;28;20249;-83
2021/03/04 07:45:13;;;;;;;30.10;23.17;;;;;;;11.51;50.67;98248.13;8370030;28;20654;-82
2021/03/04 07:49:14;;;;;;;28.57;22.83;;;;;;;12.01;48.56;98236.41;8373230;28;20207;-82
2021/03/04 07:53:18;;;;;;;32.30;22.10;;;;;;;12.58;47.87;98242.38;8372397;28;20317;-82
2021/03/04 07:57:22;;;;;;;32.73;22.57;;;;;;;12.99;46.35;98238.69;8372496;28;20202;-82
2021/03/04 08:01:24;;;;;;;27.43;20.93;;;;;;;13.35;44.82;98238.63;8373838;28;20204;-83
2021/03/04 08:05:33;;;;;;;26.97;21.63;;;;;;;13.59;44.36;98240.88;8373319;28;20255;-83
2021/03/04 08:09:46;;;;;;;29.83;21.80;;;;;;;13.74;43.52;98227.03;8663806;22;20232;31
2021/03/04 08:13:48;;;;;;;28.23;19.87;;;;;;;13.60;43.00;98222.56;8359123;28;20223;-83
2021/03/04 08:17:51;;;;;;;27.27;20.40;;;;;;;13.85;42.62;98221.28;8369359;28;20204;-83
2021/03/04 08:22:04;;;;;;;50.77;21.67;;;;;;;13.87;41.76;98207.25;8341234;28;20208;-83
2021/03/04 08:26:07;;;;;;;26.77;21.27;;;;;;;13.54;42.79;98206.47;8339362;28;20204;-82
2021/03/04 08:30:12;;;;;;;32.30;20.57;;;;;;;13.96;42.01;98197.28;8346906;28;20196;-81
2021/03/04 08:34:14;;;;;;;27.13;19.83;;;;;;;14.52;42.14;98201.09;8344588;28;20241;-82
2021/03/04 08:38:17;;;;;;;30.23;20.70;;;;;;;14.29;41.34;98199.78;8344516;28;20212;-81
2021/03/04 08:42:24;;;;;;;24.97;18.07;;;;;;;14.82;40.61;98200.28;8342771;28;20204;-82
2021/03/04 08:46:32;;;;;;;22.97;17.90;;;;;;;15.55;39.43;98189.00;8343525;28;20196;-82
2021/03/04 08:50:37;;;;;;;26.20;17.67;;;;;;;15.59;38.33;98190.50;8342962;28;20239;-82
2021/03/04 08:54:48;;;;;;;24.90;17.50;;;;;;;16.00;38.29;98192.38;8340365;28;20278;-82
2021/03/04 08:58:51;;;;;;;21.70;17.37;;;;;;;16.59;37.27;98182.44;8324951;28;20247;-83
2021/03/04 09:03:06;;;;;;;23.57;17.00;;;;;;;16.70;35.84;98173.09;8339898;28;20213;-82
2021/03/04 09:07:10;;;;;;;35.90;17.03;;;;;;;16.92;35.49;98159.44;8341294;28;20185;-82
2021/03/04 09:11:23;;;;;;;28.40;15.53;;;;;;;16.83;34.48;98162.66;8346105;28;20270;-83
2021/03/04 09:15:27;;;;;;;29.93;13.30;;;;;;;16.90;34.47;98161.31;8342674;28;20566;-82
2021/03/04 09:19:31;;;;;;;21.03;13.60;;;;;;;16.75;34.52;98157.91;8341791;28;20204;-82
2021/03/04 09:23:34;;;;;;;19.00;13.10;;;;;;;16.67;34.84;98153.19;8341307;28;20204;-82
2021/03/04 09:27:38;;;;;;;24.83;13.43;;;;;;;16.78;34.33;98145.47;8322557;28;20554;-83
2021/03/04 09:31:50;;;;;;;22.03;13.13;;;;;;;16.80;34.02;98140.13;8340100;28;20215;-83
2021/03/04 09:35:57;;;;;;;23.13;13.00;;;;;;;17.45;32.29;98130.53;8346561;28;20220;-83
2021/03/04 09:39:59;;;;;;;26.70;13.97;;;;;;;17.22;32.95;98122.50;8347356;28;20205;-84
2021/03/04 09:44:04;;;;;;;20.63;12.50;;;;;;;16.91;33.80;98127.22;8343954;28;20347;-83
2021/03/04 09:48:07;;;;;;;25.63;12.80;;;;;;;17.22;33.62;98113.81;8346199;28;20572;-83
2021/03/04 09:52:18;;;;;;;20.30;12.10;;;;;;;17.03;33.75;98119.47;8348998;28;20200;-83
2021/03/04 09:56:28;;;;;;;21.43;13.03;;;;;;;16.18;34.63;98106.75;8347445;28;20228;-83
2021/03/04 10:00:31;;;;;;;28.10;14.77;;;;;;;15.95;34.90;98105.63;8348783;28;20208;-82
2021/03/04 10:04:34;;;;;;;22.57;13.93;;;;;;;16.19;34.69;98103.22;8352868;28;20204;-82
2021/03/04 10:08:37;;;;;;;28.23;15.17;;;;;;;16.83;33.39;98082.44;8329897;28;20251;-83
2021/03/04 10:12:49;;;;;;;18.60;8.57;;;;;;;17.83;44.52;98096.38;8335114;28;20692;-82
2021/03/04 10:16:55;;;;;;;20.80;10.83;;;;;;;18.84;39.51;98089.91;8337007;28;20212;-83
2021/03/04 10:20:58;;;;;;;17.97;11.83;;;;;;;18.59;37.43;98094.34;8336126;28;20200;-83
2021/03/04 10:25:02;;;;;;;16.07;12.03;;;;;;;18.97;35.11;98082.78;8336599;28;20557;-84
2021/03/04 10:29:04;;;;;;;32.47;15.27;;;;;;;18.98;31.40;98079.19;8322214;28;20599;-84
2021/03/04 10:33:08;;;;;;;27.07;15.00;;;;;;;19.37;30.33;98084.91;8342171;28;20629;-85
2021/03/04 10:37:12;;;;;;;19.00;13.30;;;;;;;18.92;31.29;98077.88;8345533;28;20243;-84
2021/03/04 10:41:14;;;;;;;22.67;14.17;;;;;;;18.13;32.33;98082.88;8366951;28;20224;-84
2021/03/04 10:45:17;;;;;;;19.87;14.17;;;;;;;18.22;32.70;98072.66;8346795;28;20694;-83
2021/03/04 10:49:19;;;;;;;24.80;13.10;;;;;;;17.77;33.40;98083.75;8345343;28;20200;-83
2021/03/04 10:53:23;;;;;;;31.37;14.67;;;;;;;17.58;33.82;98073.75;8344304;28;20435;-83
2021/03/04 10:57:25;;;;;;;24.37;14.43;;;;;;;18.14;33.36;98075.84;8343878;28;20208;-82
2021/03/04 11:01:27;;;;;;;28.03;15.20;;;;;;;18.51;33.36;98071.34;8343970;28;20207;-82
2021/03/04 11:05:29;;;;;;;34.07;15.23;;;;;;;18.63;32.46;98045.13;8343270;28;20267;-83
2021/03/04 11:09:32;;;;;;;27.30;15.60;;;;;;;18.92;32.90;98042.91;8343757;28;20597;-83
2021/03/04 11:13:36;;;;;;;28.70;15.23;;;;;;;19.00;32.73;98042.31;8328105;28;605547;-83
2021/03/04 11:17:38;;;;;;;27.40;15.67;;;;;;;18.73;32.74;98036.47;8348525;28;20208;-83
2021/03/04 11:21:43;;;;;;;23.23;15.30;;;;;;;18.25;34.26;98036.56;8349834;28;20208;-83
2021/03/04 11:25:46;;;;;;;31.30;15.80;;;;;;;18.11;34.36;98034.16;8341618;28;20211;-81
2021/03/04 11:29:48;;;;;;;24.63;16.87;;;;;;;18.45;34.51;98031.59;8341889;28;20239;-81
2021/03/04 11:33:50;;;;;;;68.23;19.07;;;;;;;18.06;34.30;98016.13;8342724;28;20224;-81
2021/03/04 11:37:52;;;;;;;29.43;17.90;;;;;;;18.45;34.24;98006.25;8342538;28;20211;-82
2021/03/04 11:41:55;;;;;;;27.07;16.40;;;;;;;17.94;35.43;98001.34;8339737;28;20207;-81
2021/03/04 11:46:06;;;;;;;28.67;18.80;;;;;;;17.70;35.60;97988.22;8341742;28;20200;-82
2021/03/04 11:50:09;;;;;;;27.73;17.93;;;;;;;17.85;35.93;97981.06;8310188;28;20201;-83
2021/03/04 11:54:11;;;;;;;31.80;18.87;;;;;;;17.42;36.37;97977.16;8312895;28;20616;-84
2021/03/04 11:58:14;;;;;;;24.00;18.47;;;;;;;17.63;35.88;97959.03;8325401;28;20294;-84
2021/03/04 12:02:16;;;;;;;32.57;18.90;;;;;;;17.80;35.87;97965.66;8343565;28;20208;-84
2021/03/04 12:06:19;;;;;;;28.17;17.97;;;;;;;17.88;35.75;97962.50;8346063;28;20291;-84
2021/03/04 12:10:22;;;;;;;28.53;18.13;;;;;;;17.63;36.44;97948.56;8345594;28;20236;-83
2021/03/04 12:14:25;;;;;;;31.30;19.80;;;;;;;17.52;36.68;97940.66;8345503;28;20227;-82
2021/03/04 12:18:28;;;;;;;25.60;17.43;;;;;;;17.57;36.85;97918.44;8345177;28;20272;-84
2021/03/04 12:22:30;;;;;;;30.00;19.07;;;;;;;17.77;36.12;97932.66;8346380;28;20219;-84
2021/03/04 12:26:32;;;;;;;27.07;19.13;;;;;;;17.53;36.11;97918.75;8330437;28;20779;-83
2021/03/04 12:30:36;;;;;;;29.90;19.40;;;;;;;17.55;36.73;97917.72;8348719;28;20204;-83
2021/03/04 12:34:39;;;;;;;32.53;19.60;;;;;;;17.29;36.89;97919.59;8331634;28;20223;-84
2021/03/04 12:38:41;;;;;;;29.60;19.50;;;;;;;17.40;37.15;97910.97;8349872;28;20227;-84
2021/03/04 12:42:43;;;;;;;36.97;19.70;;;;;;;17.55;36.63;97907.25;8344512;28;20684;-85
2021/03/04 12:46:46;;;;;;;36.53;20.97;;;;;;;17.90;36.07;97901.19;8349966;28;20204;-85
2021/03/04 12:50:49;;;;;;;29.07;19.80;;;;;;;18.24;35.91;97895.13;8318488;28;20708;-84
2021/03/04 12:54:51;;;;;;;34.03;19.97;;;;;;;18.20;36.12;97880.59;8316246;28;20233;-85
2021/03/04 12:58:53;;;;;;;27.30;18.77;;;;;;;18.38;35.68;97876.56;8321822;28;20224;-84
2021/03/04 13:02:56;;;;;;;27.07;18.77;;;;;;;18.69;35.31;97871.53;8377617;28;20204;-83
2021/03/04 13:06:58;;;;;;;37.20;18.83;;;;;;;18.54;34.29;97873.56;8393847;28;20204;-84
2021/03/04 13:11:01;;;;;;;28.67;18.37;;;;;;;18.43;34.26;97866.56;8331220;28;20232;-84
2021/03/04 13:15:04;;;;;;;29.00;18.80;;;;;;;18.73;32.66;97873.81;8346342;28;20224;-84
2021/03/04 13:19:07;;;;;;;31.67;18.10;;;;;;;19.01;32.32;97852.44;8344158;28;20303;-84
2021/03/04 13:23:09;;;;;;;29.40;17.40;;;;;;;18.70;33.27;97866.19;8342553;28;20212;-82
2021/03/04 13:27:11;;;;;;;31.17;18.67;;;;;;;18.37;34.21;97864.41;8342984;28;20208;-82
2021/03/04 13:31:13;;;;;;;28.03;19.37;;;;;;;18.74;33.25;97858.91;8342989;28;20668;-85
2021/03/04 13:35:16;;;;;;;35.70;19.87;;;;;;;18.36;33.91;97849.66;8309309;28;20232;-85
2021/03/04 13:39:18;;;;;;;30.43;19.03;;;;;;;18.17;33.83;97853.69;8342970;28;20204;-84
2021/03/04 13:43:22;;;;;;;30.67;14.30;;;;;;;18.00;33.22;97843.66;8342231;28;20200;-84
2021/03/04 13:47:24;;;;;;;32.80;18.03;;;;;;;17.74;33.28;97843.84;8340278;28;20204;-84
2021/03/04 13:51:27;;;;;;;36.67;16.40;;;;;;;17.99;32.72;97836.75;8342790;28;20204;-84
2021/03/04 13:55:30;;;;;;;28.07;16.13;;;;;;;17.90;33.18;97834.88;8341327;28;20277;-84
2021/03/04 13:59:32;;;;;;;35.57;16.93;;;;;;;17.34;33.96;97832.88;8341058;28;20208;-84
2021/03/04 14:03:36;;;;;;;27.33;16.13;;;;;;;17.32;34.58;97826.94;8340030;28;20211;-84
2021/03/04 14:07:39;;;;;;;27.07;16.47;;;;;;;17.14;34.93;97824.72;8339602;28;20204;-84
2021/03/04 14:11:41;;;;;;;28.47;17.73;;;;;;;17.74;34.27;97822.03;8350507;28;20250;-84
2021/03/04 14:15:44;;;;;;;29.50;16.73;;;;;;;17.93;34.02;97813.66;8340335;28;20244;-84
2021/03/04 14:19:46;;;;;;;27.67;17.73;;;;;;;17.81;34.79;97798.84;8340783;28;20215;-84
2021/03/04 14:23:50;;;;;;;31.90;18.57;;;;;;;17.16;35.58;97798.47;8339915;28;20211;-84
2021/03/04 14:27:52;;;;;;;33.63;19.70;;;;;;;16.97;35.91;97797.19;8339177;28;20232;-85
2021/03/04 14:31:54;;;;;;;30.93;18.53;;;;;;;16.93;36.31;97795.75;8340567;28;20200;-84
2021/03/04 14:35:57;;;;;;;34.60;19.43;;;;;;;16.88;36.71;97786.56;8322858;28;20274;-84
2021/03/04 14:40:04;;;;;;;27.30;18.00;;;;;;;16.88;36.76;97781.34;8323189;28;20205;-85
2021/03/04 14:44:07;;;;;;;32.03;18.60;;;;;;;16.91;36.95;97781.94;8350145;28;20234;-84
2021/03/04 14:48:10;;;;;;;33.77;19.37;;;;;;;16.86;36.96;97781.44;8306078;28;20224;-84
2021/03/04 14:52:13;;;;;;;30.33;17.93;;;;;;;16.81;36.53;97767.81;8305825;28;20725;-84
2021/03/04 14:56:16;;;;;;;30.00;17.30;;;;;;;16.83;36.58;97762.53;8307261;28;20248;-84
2021/03/04 15:00:20;;;;;;;31.33;17.10;;;;;;;16.81;36.71;97754.75;8313851;28;20208;-84
2021/03/04 15:04:26;;;;;;;30.13;16.27;;;;;;;17.09;36.42;97758.00;8322083;28;20252;-84
2021/03/04 15:08:28;;;;;;;33.73;16.47;;;;;;;17.03;35.82;97748.00;8320191;28;20211;-84
2021/03/04 15:12:32;;;;;;;28.87;15.57;;;;;;;16.94;35.67;97739.84;8365773;28;20247;-84
2021/03/04 15:16:34;;;;;;;26.87;14.87;;;;;;;17.04;35.93;97742.66;8357949;28;20219;-84
2021/03/04 15:20:36;;;;;;;20.67;8.50;;;;;;;17.69;48.45;97750.88;8398388;28;20183;-84
2021/03/04 15:24:38;;;;;;;31.23;10.57;;;;;;;17.88;44.68;97750.31;8385338;28;20222;-84
2021/03/04 15:28:42;;;;;;;31.40;11.37;;;;;;;17.57;37.08;97736.91;8349580;28;20223;-84
2021/03/04 15:32:43;;;;;;;21.67;9.10;;;;;;;17.97;44.95;97739.09;8330982;28;20223;-83
2021/03/04 15:36:46;;;;;;;21.47;10.30;;;;;;;17.95;41.40;97733.16;8342743;28;20232;-83
2021/03/04 15:40:48;;;;;;;25.53;10.70;;;;;;;17.61;40.47;97730.53;8344505;28;20201;-83
2021/03/04 15:44:50;;;;;;;21.37;10.07;;;;;;;17.66;42.09;97728.34;8345754;28;20235;-82
2021/03/04 15:48:52;;;;;;;23.90;10.57;;;;;;;17.69;41.58;97727.31;8344798;28;20211;-82
2021/03/04 15:52:55;;;;;;;23.43;10.63;;;;;;;17.57;41.25;97734.28;8347551;28;20232;-82
2021/03/04 15:56:58;;;;;;;27.00;10.33;;;;;;;17.51;41.81;97721.69;8351140;28;20220;-82
2021/03/04 16:01:20;;;;;;;22.30;10.63;;;;;;;17.40;40.66;97722.50;8319252;28;20227;-83
2021/03/04 16:05:22;;;;;;;31.17;11.67;;;;;;;17.06;39.81;97714.59;8325183;28;20299;-82
2021/03/04 16:09:25;;;;;;;30.30;11.47;;;;;;;16.98;38.05;97717.78;8344066;28;20527;-82
2021/03/04 16:13:27;;;;;;;23.33;11.33;;;;;;;16.86;38.86;97708.22;8341912;28;20625;-82
2021/03/04 16:17:31;;;;;;;20.83;10.70;;;;;;;16.88;37.95;97714.16;8343336;28;20201;-83
2021/03/04 16:21:36;;;;;;;22.13;10.27;;;;;;;16.81;37.80;97716.38;8343770;28;20695;-83
2021/03/04 16:25:37;;;;;;;26.50;10.27;;;;;;;16.75;37.85;97716.00;8343503;28;20559;-85
2021/03/04 16:29:52;;;;;;;28.67;9.90;;;;;;;16.64;37.54;97716.78;8343952;28;20271;-83
2021/03/04 16:33:56;;;;;;;27.47;10.37;;;;;;;16.14;37.78;97718.63;8346950;28;20231;-86
2021/03/04 16:37:58;;;;;;;25.13;10.13;;;;;;;15.91;37.93;97708.03;8297420;28;20201;-85
2021/03/04 16:42:00;;;;;;;24.17;10.63;;;;;;;15.84;38.61;97717.25;8343783;28;20644;-85
2021/03/04 16:46:02;;;;;;;26.77;12.90;;;;;;;15.58;38.90;97714.63;8344102;28;20200;-85
2021/03/04 16:50:08;;;;;;;25.73;11.97;;;;;;;15.49;39.80;97715.25;8343456;28;20231;-84
2021/03/04 16:54:10;;;;;;;26.03;12.87;;;;;;;15.38;40.03;97726.44;8344388;28;20228;-85
2021/03/04 16:58:12;;;;;;;24.30;12.60;;;;;;;15.24;40.89;97752.59;8343343;28;20196;-85
2021/03/04 17:02:14;;;;;;;122.30;12.73;;;;;;;14.39;50.30;97772.84;8334155;28;20603;-84
2021/03/04 17:06:17;;;;;;;34.27;10.03;;;;;;;14.05;53.48;97793.16;8342453;28;20322;-84
2021/03/04 17:10:20;;;;;;;17.73;9.43;;;;;;;13.96;54.33;97794.56;8322853;28;20224;-85
2021/03/04 17:14:22;;;;;;;20.83;15.77;;;;;;;13.88;54.18;97794.22;8316614;28;20212;-84
2021/03/04 17:18:25;;;;;;;22.77;12.37;;;;;;;13.77;55.56;97799.22;8311768;28;20204;-84
2021/03/04 17:22:28;;;;;;;22.13;13.00;;;;;;;13.85;55.46;97792.59;8310830;28;20205;-84
2021/03/04 17:26:30;;;;;;;18.83;11.97;;;;;;;13.66;56.13;97790.28;8324427;28;20200;-84
2021/03/04 17:30:34;;;;;;;20.33;12.00;;;;;;;13.52;56.16;97786.81;8343281;28;20204;-84
2021/03/04 17:34:39;;;;;;;21.20;11.70;;;;;;;13.35;56.91;97787.81;8346112;28;20246;-84
2021/03/04 17:38:42;;;;;;;17.83;11.70;;;;;;;13.47;57.05;97790.53;8343613;28;20299;-84
2021/03/04 17:42:44;;;;;;;22.47;11.97;;;;;;;13.22;57.80;97775.50;8348221;28;20215;-85
2021/03/04 17:46:46;;;;;;;22.30;12.30;;;;;;;13.05;58.50;97763.47;8345042;28;20211;-84
2021/03/04 17:50:48;;;;;;;26.73;12.90;;;;;;;13.16;57.97;97765.44;8344067;28;20204;-84
2021/03/04 17:54:52;;;;;;;19.73;11.87;;;;;;;13.23;58.94;97774.56;8344839;28;20224;-84
2021/03/04 17:58:54;;;;;;;21.50;11.87;;;;;;;13.33;58.19;97780.09;8345312;28;20235;-84
2021/03/04 18:03:01;;;;;;;20.70;11.83;;;;;;;13.27;59.23;97770.88;8345221;28;20208;-83
2021/03/04 18:07:04;;;;;;;21.13;11.90;;;;;;;13.29;58.24;97763.81;8363505;28;20212;-81
2021/03/04 18:11:07;;;;;;;23.13;13.13;;;;;;;13.28;58.55;97766.50;8370941;28;20624;-83
2021/03/04 18:15:10;;;;;;;21.10;12.17;;;;;;;13.24;58.55;97754.59;8325872;28;20228;-85
2021/03/04 18:19:12;;;;;;;21.23;12.70;;;;;;;13.19;59.11;97767.03;8316937;28;20212;-82
2021/03/04 18:23:14;;;;;;;19.93;12.20;;;;;;;13.17;59.28;97755.88;8311616;28;20228;-84
2021/03/04 18:27:18;;;;;;;22.47;13.90;;;;;;;13.13;59.06;97742.22;8303752;28;20204;-84
2021/03/04 18:31:21;;;;;;;22.53;13.90;;;;;;;13.10;59.26;97745.84;8348726;28;20207;-83
2021/03/04 18:35:23;;;;;;;22.40;14.93;;;;;;;13.05;59.55;97742.66;8338637;28;20235;-85
2021/03/04 18:39:25;;;;;;;22.70;13.50;;;;;;;13.01;59.41;97745.53;8351882;28;20695;-84
2021/03/04 18:43:28;;;;;;;20.43;12.83;;;;;;;12.94;59.84;97731.22;8331706;28;20208;-84